createdAt,value
2018-12-16T00:00:23.420Z,96.90
2018-12-16T00:02:51.943Z,96.90
2018-12-16T00:05:20.378Z,96.90
2018-12-16T00:07:48.912Z,96.90
2018-12-16T00:10:17.381Z,96.90
2018-12-16T00:12:45.799Z,96.80
2018-12-16T00:15:14.272Z,96.90
2018-12-16T00:17:42.716Z,97.00
2018-12-16T00:20:11.131Z,96.90
2018-12-16T00:22:39.568Z,96.90
2018-12-16T00:25:08.397Z,96.90
2018-12-16T00:27:36.794Z,96.70
2018-12-16T00:30:06.632Z,96.80
2018-12-16T00:32:35.153Z,96.80
2018-12-16T00:35:03.943Z,96.80
2018-12-16T00:37:32.433Z,96.70
2018-12-16T00:40:00.832Z,96.70
2018-12-16T00:42:29.221Z,96.90
2018-12-16T00:44:57.757Z,96.70
2018-12-16T00:47:26.198Z,96.70
2018-12-16T00:49:54.692Z,96.80
2018-12-16T00:52:23.124Z,96.90
2018-12-16T00:54:51.781Z,96.90
2018-12-16T00:57:20.189Z,96.80
2018-12-16T00:59:48.624Z,97.00
2018-12-16T01:02:22.377Z,97.00
2018-12-16T01:04:50.884Z,96.90
2018-12-16T01:07:20.318Z,96.90
2018-12-16T01:09:48.734Z,97.00
2018-12-16T01:12:17.142Z,97.10
2018-12-16T01:14:45.562Z,97.10
2018-12-16T01:17:13.984Z,97.10
2018-12-16T01:19:42.514Z,97.10
2018-12-16T01:22:10.969Z,97.20
2018-12-16T01:24:39.383Z,97.20
2018-12-16T01:27:08.048Z,97.30
2018-12-16T01:29:36.533Z,97.20
2018-12-16T01:32:05.084Z,97.30
2018-12-16T01:34:33.783Z,97.20
2018-12-16T01:37:02.264Z,97.30
2018-12-16T01:39:30.751Z,97.20
2018-12-16T01:41:59.443Z,97.00
2018-12-16T01:44:27.841Z,97.20
2018-12-16T01:46:56.401Z,97.20
2018-12-16T01:49:24.900Z,97.20
2018-12-16T01:51:53.454Z,97.00
2018-12-16T01:54:22.330Z,97.00
2018-12-16T01:56:50.813Z,96.90
2018-12-16T01:59:19.390Z,97.00
2018-12-16T02:01:56.060Z,96.90
2018-12-16T02:04:24.673Z,97.00
2018-12-16T02:06:53.159Z,97.10
2018-12-16T02:09:21.915Z,97.30
2018-12-16T02:11:50.327Z,97.20
2018-12-16T02:14:18.731Z,97.10
2018-12-16T02:16:47.148Z,97.20
2018-12-16T02:19:15.636Z,97.10
2018-12-16T02:21:44.032Z,97.20
2018-12-16T02:24:12.545Z,97.30
2018-12-16T02:26:41.082Z,97.20
2018-12-16T02:29:09.753Z,97.10
2018-12-16T02:31:38.246Z,97.10
2018-12-16T02:34:06.635Z,97.00
2018-12-16T02:36:35.026Z,97.20
2018-12-16T02:39:04.703Z,97.20
2018-12-16T02:41:33.218Z,97.20
2018-12-16T02:44:01.604Z,97.20
2018-12-16T02:46:30.031Z,97.30
2018-12-16T02:48:58.438Z,97.30
2018-12-16T02:51:26.844Z,97.30
2018-12-16T02:53:55.363Z,97.40
2018-12-16T02:56:23.772Z,97.30
2018-12-16T02:58:52.244Z,97.40
2018-12-16T03:01:20.656Z,97.40
2018-12-16T03:03:49.064Z,97.40
2018-12-16T03:06:17.550Z,97.60
2018-12-16T03:08:45.967Z,97.60
2018-12-16T03:11:14.374Z,97.60
2018-12-16T03:13:42.831Z,97.70
2018-12-16T03:16:11.247Z,97.80
2018-12-16T03:18:39.667Z,97.80
2018-12-16T03:21:08.129Z,97.60
2018-12-16T03:23:36.613Z,97.70
2018-12-16T03:26:05.044Z,97.50
2018-12-16T03:28:33.499Z,97.70
2018-12-16T03:31:01.904Z,97.90
2018-12-16T03:33:30.426Z,97.50
2018-12-16T03:35:58.820Z,97.80
2018-12-16T03:38:27.244Z,98.10
2018-12-16T03:40:55.663Z,97.70
2018-12-16T03:43:24.054Z,97.70
2018-12-16T03:45:52.446Z,97.90
2018-12-16T03:48:20.865Z,97.90
2018-12-16T03:50:49.276Z,98.10
2018-12-16T03:53:20.164Z,98.00
2018-12-16T03:55:48.355Z,97.90
2018-12-16T03:58:16.992Z,97.60
2018-12-16T04:00:45.678Z,98.00
2018-12-16T04:03:14.157Z,97.90
2018-12-16T04:05:42.581Z,97.90
2018-12-16T04:08:11.086Z,97.80
2018-12-16T04:10:39.654Z,97.80
2018-12-16T04:13:08.184Z,97.90
2018-12-16T04:15:36.636Z,98.10
2018-12-16T04:18:05.244Z,98.20
2018-12-16T04:20:33.749Z,98.10
2018-12-16T04:23:02.133Z,98.30
2018-12-16T04:25:30.638Z,98.10
2018-12-16T04:27:59.231Z,98.20
2018-12-16T04:30:27.737Z,98.10
2018-12-16T04:32:56.128Z,98.20
2018-12-16T04:35:24.542Z,98.30
2018-12-16T04:37:52.940Z,98.40
2018-12-16T04:40:21.736Z,98.50
2018-12-16T04:42:50.323Z,98.50
2018-12-16T04:45:18.831Z,98.60
2018-12-16T04:47:47.475Z,98.80
2018-12-16T04:50:17.200Z,98.70
2018-12-16T04:52:47.708Z,98.60
2018-12-16T04:55:16.187Z,98.50
2018-12-16T04:57:44.797Z,98.50
2018-12-16T05:00:15.616Z,98.60
2018-12-16T05:02:45.509Z,98.60
2018-12-16T05:05:13.979Z,98.80
2018-12-16T05:07:42.718Z,98.90
2018-12-16T05:10:26.413Z,99.00
2018-12-16T05:12:54.949Z,99.10
2018-12-16T05:15:23.391Z,99.10
2018-12-16T05:17:52.569Z,99.00
2018-12-16T05:20:20.992Z,99.00
2018-12-16T05:22:49.404Z,99.00
2018-12-16T05:25:17.952Z,99.50
2018-12-16T05:27:46.357Z,99.20
2018-12-16T05:30:14.802Z,99.70
2018-12-16T05:32:43.354Z,99.60
2018-12-16T05:35:11.765Z,99.70
2018-12-16T05:37:40.244Z,99.50
2018-12-16T05:40:08.924Z,99.60
2018-12-16T05:42:37.371Z,99.70
2018-12-16T05:45:06.323Z,99.90
2018-12-16T05:47:34.842Z,99.90
2018-12-16T05:50:03.508Z,99.90
2018-12-16T05:52:32.065Z,99.90
2018-12-16T05:55:00.592Z,99.90
2018-12-16T05:57:29.115Z,99.90
2018-12-16T05:59:57.566Z,99.90
2018-12-16T06:02:26.364Z,99.90
2018-12-16T06:04:54.788Z,99.90
2018-12-16T06:07:23.176Z,99.70
2018-12-16T06:09:51.708Z,99.70
2018-12-16T06:12:20.139Z,99.80
2018-12-16T06:14:48.543Z,99.80
2018-12-16T06:17:16.942Z,99.70
2018-12-16T06:19:45.344Z,99.50
2018-12-16T06:22:13.755Z,99.40
2018-12-16T06:24:42.213Z,99.40
2018-12-16T06:27:10.623Z,99.40
2018-12-16T06:29:40.480Z,99.30
2018-12-16T06:32:08.982Z,99.20
2018-12-16T06:34:37.542Z,99.20
2018-12-16T06:37:05.989Z,99.10
2018-12-16T06:39:34.390Z,99.10
2018-12-16T06:42:02.968Z,99.00
2018-12-16T06:44:31.403Z,99.30
2018-12-16T06:46:59.827Z,99.20
2018-12-16T06:49:28.280Z,99.20
2018-12-16T06:51:56.745Z,98.90
2018-12-16T06:54:25.248Z,99.00
2018-12-16T06:56:53.654Z,98.90
2018-12-16T06:59:22.216Z,99.10
2018-12-16T07:01:50.630Z,99.10
2018-12-16T07:04:19.166Z,99.20
2018-12-16T07:06:47.665Z,99.20
2018-12-16T07:09:16.066Z,99.30
2018-12-16T07:11:44.465Z,99.50
2018-12-16T07:14:12.873Z,99.50
2018-12-16T07:16:41.301Z,99.40
2018-12-16T07:19:09.880Z,99.20
2018-12-16T07:21:38.418Z,99.00
2018-12-16T07:24:09.401Z,99.30
2018-12-16T07:26:37.504Z,99.30
2018-12-16T07:29:05.908Z,99.30
2018-12-16T07:31:34.324Z,99.40
2018-12-16T07:34:02.770Z,99.30
2018-12-16T07:36:31.349Z,99.30
2018-12-16T07:38:59.881Z,99.20
2018-12-16T07:41:28.400Z,99.20
2018-12-16T07:43:56.961Z,99.20
2018-12-16T07:46:25.389Z,99.30
2018-12-16T07:48:54.014Z,99.40
2018-12-16T07:51:22.459Z,99.40
2018-12-16T07:53:50.855Z,99.30
2018-12-16T07:56:19.344Z,99.60
2018-12-16T07:58:47.772Z,99.60
2018-12-16T08:01:16.196Z,99.60
2018-12-16T08:03:44.616Z,99.80
2018-12-16T08:06:13.102Z,99.70
2018-12-16T08:08:41.785Z,99.60
2018-12-16T08:11:10.216Z,99.50
2018-12-16T08:13:38.642Z,99.70
2018-12-16T08:16:07.138Z,99.90
2018-12-16T08:18:35.552Z,99.90
2018-12-16T08:21:04.059Z,99.90
2018-12-16T08:23:32.504Z,99.90
2018-12-16T08:26:00.934Z,99.90
2018-12-16T08:28:29.568Z,99.90
2018-12-16T08:30:57.979Z,99.90
2018-12-16T08:33:26.400Z,99.90
2018-12-16T08:35:54.794Z,99.90
2018-12-16T08:38:23.211Z,99.90
2018-12-16T08:40:51.610Z,99.90
2018-12-16T08:43:20.067Z,99.90
2018-12-16T08:45:48.498Z,99.90
2018-12-16T08:48:16.880Z,99.90
2018-12-16T08:50:45.327Z,99.90
2018-12-16T08:53:13.836Z,99.90
2018-12-16T08:55:42.290Z,99.80
2018-12-16T08:58:10.695Z,99.90
2018-12-16T09:00:39.178Z,99.90
2018-12-16T09:03:11.022Z,99.90
2018-12-16T09:05:39.446Z,99.90
2018-12-16T09:08:07.856Z,99.90
2018-12-16T09:10:36.297Z,99.90
2018-12-16T09:13:04.709Z,99.90
2018-12-16T09:15:33.115Z,99.90
2018-12-16T09:18:01.560Z,99.90
2018-12-16T09:20:29.984Z,99.90
2018-12-16T09:22:58.386Z,99.90
2018-12-16T09:25:26.923Z,99.90
2018-12-16T09:27:55.356Z,99.90
2018-12-16T09:30:23.774Z,99.90
2018-12-16T09:32:52.159Z,99.90
2018-12-16T09:35:20.674Z,99.90
2018-12-16T09:37:49.189Z,99.90
2018-12-16T09:40:17.745Z,99.90
2018-12-16T09:42:46.194Z,99.90
2018-12-16T09:45:14.617Z,99.90
2018-12-16T09:47:43.384Z,99.80
2018-12-16T09:50:11.849Z,99.70
2018-12-16T09:52:40.269Z,99.60
2018-12-16T09:55:09.836Z,99.60
2018-12-16T09:57:38.266Z,99.70
2018-12-16T10:00:08.977Z,99.70
2018-12-16T10:02:37.497Z,99.70
2018-12-16T10:05:06.495Z,99.70
2018-12-16T10:07:34.957Z,99.80
2018-12-16T10:10:03.502Z,99.80
2018-12-16T10:12:31.950Z,99.90
2018-12-16T10:15:00.381Z,99.90
2018-12-16T10:17:28.804Z,99.40
2018-12-16T10:19:57.303Z,99.20
2018-12-16T10:22:25.756Z,99.20
2018-12-16T10:24:54.303Z,99.10
2018-12-16T10:27:23.051Z,99.20
2018-12-16T10:29:51.461Z,99.10
2018-12-16T10:32:20.159Z,99.00
2018-12-16T10:34:48.592Z,99.10
2018-12-16T10:37:17.083Z,99.10
2018-12-16T10:39:45.540Z,99.00
2018-12-16T10:42:13.940Z,99.30
2018-12-16T10:44:42.385Z,99.10
2018-12-16T10:47:12.347Z,99.10
2018-12-16T10:49:40.778Z,99.10
2018-12-16T10:52:09.333Z,99.20
2018-12-16T10:54:37.758Z,99.10
2018-12-16T10:57:06.169Z,99.30
2018-12-16T10:59:35.083Z,99.20
2018-12-16T11:02:03.491Z,99.20
2018-12-16T11:04:44.661Z,99.20
2018-12-16T11:07:14.181Z,99.20
2018-12-16T11:09:42.713Z,99.00
2018-12-16T11:12:11.137Z,99.00
2018-12-16T11:14:39.673Z,99.00
2018-12-16T11:17:08.281Z,98.80
2018-12-16T11:19:36.736Z,98.70
2018-12-16T11:22:05.183Z,98.80
2018-12-16T11:24:33.578Z,98.70
2018-12-16T11:27:02.061Z,99.00
2018-12-16T11:29:30.512Z,99.20
2018-12-16T11:31:58.933Z,99.20
2018-12-16T11:34:27.381Z,99.30
2018-12-16T11:36:55.913Z,99.30
2018-12-16T11:39:24.420Z,99.50
2018-12-16T11:41:52.848Z,99.80
2018-12-16T11:44:21.255Z,99.70
2018-12-16T11:46:49.659Z,99.70
2018-12-16T11:49:18.110Z,99.50
2018-12-16T11:51:46.922Z,99.60
2018-12-16T11:54:15.419Z,99.70
2018-12-16T11:56:43.865Z,99.60
2018-12-16T11:59:12.275Z,99.40
2018-12-16T12:01:40.693Z,99.40
2018-12-16T12:04:09.102Z,99.20
2018-12-16T12:06:37.675Z,99.00
2018-12-16T12:09:06.837Z,99.10
2018-12-16T12:11:35.299Z,98.90
2018-12-16T12:14:03.864Z,99.00
2018-12-16T12:16:32.295Z,99.00
2018-12-16T12:19:01.813Z,99.20
2018-12-16T12:21:30.338Z,99.40
2018-12-16T12:23:58.749Z,99.30
2018-12-16T12:26:27.172Z,99.20
2018-12-16T12:28:55.602Z,99.40
2018-12-16T12:31:24.000Z,99.60
2018-12-16T12:33:52.404Z,99.40
2018-12-16T12:36:20.852Z,99.40
2018-12-16T12:38:49.421Z,99.40
2018-12-16T12:41:20.464Z,99.60
2018-12-16T12:43:49.110Z,99.60
2018-12-16T12:46:17.642Z,99.70
2018-12-16T12:48:46.187Z,99.70
2018-12-16T12:51:14.598Z,99.80
2018-12-16T12:53:43.189Z,99.90
2018-12-16T12:56:11.602Z,99.80
2018-12-16T12:58:40.037Z,99.80
2018-12-16T13:01:08.623Z,99.70
2018-12-16T13:03:37.209Z,99.70
2018-12-16T13:06:05.760Z,99.90
2018-12-16T13:08:34.193Z,99.80
2018-12-16T13:11:02.618Z,99.90
2018-12-16T13:13:31.057Z,99.80
2018-12-16T13:15:59.527Z,99.90
2018-12-16T13:18:27.963Z,99.90
2018-12-16T13:20:56.459Z,99.80
2018-12-16T13:23:24.898Z,99.80
2018-12-16T13:26:04.049Z,99.90
2018-12-16T13:28:32.488Z,99.50
2018-12-16T13:31:01.016Z,99.50
2018-12-16T13:33:29.442Z,99.70
2018-12-16T13:35:57.900Z,99.70
2018-12-16T13:38:26.368Z,99.90
2018-12-16T13:40:54.813Z,99.90
2018-12-16T13:43:23.371Z,99.90
2018-12-16T13:45:51.982Z,99.90
2018-12-16T13:48:20.446Z,99.90
2018-12-16T13:50:48.900Z,99.90
2018-12-16T13:53:17.326Z,99.90
2018-12-16T13:55:46.039Z,99.90
2018-12-16T13:58:14.460Z,99.80
2018-12-16T14:00:42.896Z,99.70
2018-12-16T14:03:11.353Z,99.70
2018-12-16T14:05:46.486Z,99.60
2018-12-16T14:08:10.349Z,99.70
2018-12-16T14:10:38.910Z,99.80
2018-12-16T14:13:07.422Z,99.90
2018-12-16T14:15:35.867Z,99.80
2018-12-16T14:18:04.268Z,99.90
2018-12-16T14:20:32.678Z,99.90
2018-12-16T14:23:01.085Z,99.90
2018-12-16T14:25:29.492Z,99.90
2018-12-16T14:27:57.953Z,99.90
2018-12-16T14:30:26.367Z,99.90
2018-12-16T14:32:54.786Z,99.90
2018-12-16T14:35:23.287Z,99.90
2018-12-16T14:37:52.763Z,99.70
2018-12-16T14:40:21.211Z,99.80
2018-12-16T14:42:49.671Z,99.70
2018-12-16T14:45:18.205Z,99.80
2018-12-16T14:47:46.632Z,99.70
2018-12-16T14:50:15.189Z,99.90
2018-12-16T14:52:43.629Z,99.90
2018-12-16T14:55:12.181Z,99.90
2018-12-16T14:57:40.597Z,99.90
2018-12-16T15:00:11.057Z,99.90
2018-12-16T15:02:39.641Z,99.90
2018-12-16T15:05:15.279Z,99.90
2018-12-16T15:07:43.743Z,99.90
2018-12-16T15:10:12.484Z,99.90
2018-12-16T15:12:40.901Z,99.90
2018-12-16T15:15:09.622Z,99.90
2018-12-16T15:17:42.840Z,99.90
2018-12-16T15:20:08.951Z,99.90
2018-12-16T15:22:37.491Z,99.90
2018-12-16T15:25:06.390Z,99.90
2018-12-16T15:27:34.922Z,99.90
2018-12-16T15:30:04.091Z,99.90
2018-12-16T15:32:32.504Z,99.90
2018-12-16T15:35:00.915Z,99.90
2018-12-16T15:37:29.369Z,99.90
2018-12-16T15:39:57.769Z,99.90
2018-12-16T15:42:26.198Z,99.90
2018-12-16T15:44:54.597Z,99.90
2018-12-16T15:47:23.049Z,99.90
2018-12-16T15:49:51.465Z,99.90
2018-12-16T15:52:19.983Z,99.90
2018-12-16T15:54:48.398Z,99.90
2018-12-16T15:57:16.949Z,99.90
2018-12-16T15:59:45.360Z,99.90
2018-12-16T16:02:13.795Z,99.90
2018-12-16T16:04:42.241Z,99.90
2018-12-16T16:07:10.686Z,99.90
2018-12-16T16:09:39.102Z,99.90
2018-12-16T16:12:07.561Z,99.90
2018-12-16T16:14:36.006Z,99.90
2018-12-16T16:17:04.469Z,99.90
2018-12-16T16:19:32.939Z,99.90
2018-12-16T16:22:01.508Z,99.90
2018-12-16T16:24:30.009Z,99.90
2018-12-16T16:26:58.443Z,99.90
2018-12-16T16:29:26.893Z,99.90
2018-12-16T16:31:55.322Z,99.90
2018-12-16T16:34:23.768Z,99.90
2018-12-16T16:36:52.180Z,99.90
2018-12-16T16:39:20.647Z,99.90
2018-12-16T16:41:49.212Z,99.90
2018-12-16T16:44:17.694Z,99.90
2018-12-16T16:46:46.102Z,99.90
2018-12-16T16:49:14.532Z,99.90
2018-12-16T16:51:42.983Z,99.90
2018-12-16T16:54:11.460Z,99.90
2018-12-16T16:56:40.036Z,99.90
2018-12-16T16:59:08.555Z,99.90
2018-12-16T17:01:36.989Z,99.90
2018-12-16T17:04:05.521Z,99.90
2018-12-16T17:06:34.064Z,99.90
2018-12-16T17:09:02.904Z,99.90
2018-12-16T17:11:31.509Z,99.90
2018-12-16T17:14:00.067Z,99.90
2018-12-16T17:16:28.585Z,99.90
2018-12-16T17:18:58.207Z,99.90
2018-12-16T17:21:26.807Z,99.90
2018-12-16T17:23:55.249Z,99.90
2018-12-16T17:26:29.828Z,99.90
2018-12-16T17:28:54.179Z,99.90
2018-12-16T17:31:22.763Z,99.90
2018-12-16T17:33:51.193Z,99.90
2018-12-16T17:36:19.628Z,99.90
2018-12-16T17:38:48.190Z,99.90
2018-12-16T17:41:16.828Z,99.90
2018-12-16T17:43:45.320Z,99.90
2018-12-16T17:46:13.750Z,99.90
2018-12-16T17:48:42.226Z,99.90
2018-12-16T17:51:10.720Z,99.90
2018-12-16T17:53:39.103Z,99.90
2018-12-16T17:56:07.910Z,99.90
2018-12-16T17:58:36.465Z,99.90
2018-12-16T18:01:05.213Z,99.90
2018-12-16T18:03:33.742Z,99.90
2018-12-16T18:06:02.173Z,99.90
2018-12-16T18:08:30.605Z,99.90
2018-12-16T18:10:59.033Z,99.90
2018-12-16T18:13:27.451Z,99.90
2018-12-16T18:15:55.866Z,99.90
2018-12-16T18:18:24.298Z,99.90
2018-12-16T18:20:52.727Z,99.90
2018-12-16T18:23:21.183Z,99.90
2018-12-16T18:25:49.718Z,99.90
2018-12-16T18:28:18.132Z,99.90
2018-12-16T18:30:46.659Z,99.90
2018-12-16T18:33:15.312Z,99.90
2018-12-16T18:35:43.736Z,99.90
2018-12-16T18:38:12.159Z,99.90
2018-12-16T18:40:40.579Z,99.90
2018-12-16T18:43:09.176Z,99.90
2018-12-16T18:45:37.681Z,99.90
2018-12-16T18:48:06.629Z,99.90
2018-12-16T18:50:35.155Z,99.80
2018-12-16T18:53:03.803Z,99.90
2018-12-16T18:55:32.215Z,99.90
2018-12-16T18:58:00.636Z,99.90
2018-12-16T19:00:29.044Z,99.90
2018-12-16T19:02:57.471Z,99.90
2018-12-16T19:05:25.961Z,99.90
2018-12-16T19:07:54.394Z,99.90
2018-12-16T19:10:22.815Z,99.90
2018-12-16T19:12:51.256Z,99.90
2018-12-16T19:15:20.333Z,99.90
2018-12-16T19:17:48.772Z,99.90
2018-12-16T19:20:17.192Z,99.90
2018-12-16T19:22:45.647Z,99.90
2018-12-16T19:25:14.079Z,99.90
2018-12-16T19:27:42.514Z,99.90
2018-12-16T19:30:11.070Z,99.90
2018-12-16T19:32:39.507Z,99.90
2018-12-16T19:35:08.898Z,99.90
2018-12-16T19:37:37.342Z,99.90
2018-12-16T19:40:06.667Z,99.90
2018-12-16T19:42:35.075Z,99.90
2018-12-16T19:45:03.970Z,99.90
2018-12-16T19:47:32.426Z,99.90
2018-12-16T19:50:00.928Z,99.90
2018-12-16T19:52:29.466Z,99.90
2018-12-16T19:54:57.986Z,99.90
2018-12-16T19:57:26.474Z,99.90
2018-12-16T19:59:54.889Z,99.90
2018-12-16T20:02:23.325Z,99.90
2018-12-16T20:04:57.115Z,99.90
2018-12-16T20:07:25.540Z,99.90
2018-12-16T20:09:53.938Z,99.90
2018-12-16T20:12:22.371Z,99.90
2018-12-16T20:14:50.795Z,99.90
2018-12-16T20:17:19.389Z,99.90
2018-12-16T20:19:47.911Z,99.90
2018-12-16T20:22:16.344Z,99.90
2018-12-16T20:24:44.751Z,99.90
2018-12-16T20:27:13.205Z,99.90
2018-12-16T20:29:41.667Z,99.90
2018-12-16T20:32:10.127Z,99.90
2018-12-16T20:34:38.563Z,99.90
2018-12-16T20:37:07.017Z,99.90
2018-12-16T20:39:35.503Z,99.90
2018-12-16T20:42:03.945Z,99.90
2018-12-16T20:44:32.406Z,99.90
2018-12-16T20:47:00.855Z,99.90
2018-12-16T20:49:29.447Z,99.90
2018-12-16T20:51:57.872Z,99.90
2018-12-16T20:54:26.342Z,99.90
2018-12-16T20:56:54.782Z,99.90
2018-12-16T20:59:23.273Z,99.90
2018-12-16T21:01:51.676Z,99.90
2018-12-16T21:04:20.147Z,99.90
2018-12-16T21:06:48.647Z,99.90
2018-12-16T21:09:17.084Z,99.90
2018-12-16T21:11:51.022Z,99.90
2018-12-16T21:14:24.856Z,99.90
2018-12-16T21:16:58.763Z,99.90
2018-12-16T21:19:27.308Z,99.90
2018-12-16T21:21:55.754Z,99.90
2018-12-16T21:24:24.213Z,99.90
2018-12-16T21:26:52.956Z,99.90
2018-12-16T21:29:21.470Z,99.90
2018-12-16T21:31:49.881Z,99.90
2018-12-16T21:34:18.310Z,99.90
2018-12-16T21:36:46.926Z,99.90
2018-12-16T21:39:15.374Z,99.90
2018-12-16T21:41:43.881Z,99.90
2018-12-16T21:44:12.318Z,99.90
2018-12-16T21:46:40.732Z,99.90
2018-12-16T21:49:09.299Z,99.90
2018-12-16T21:51:37.751Z,99.90
2018-12-16T21:54:06.178Z,99.90
2018-12-16T21:56:34.634Z,99.90
2018-12-16T21:59:03.049Z,99.90
2018-12-16T22:01:31.482Z,99.90
2018-12-16T22:03:59.902Z,99.90
2018-12-16T22:06:28.309Z,99.90
2018-12-16T22:08:56.747Z,99.90
2018-12-16T22:11:25.170Z,99.90
2018-12-16T22:13:53.643Z,99.90
2018-12-16T22:16:22.130Z,99.90
2018-12-16T22:18:50.572Z,99.90
2018-12-16T22:21:19.014Z,99.90
2018-12-16T22:23:47.420Z,99.90
2018-12-16T22:26:15.851Z,99.90
2018-12-16T22:28:44.291Z,99.90
2018-12-16T22:31:12.821Z,99.90
2018-12-16T22:33:41.219Z,99.90
2018-12-16T22:36:09.642Z,99.90
2018-12-16T22:38:38.048Z,99.90
2018-12-16T22:41:06.460Z,99.90
2018-12-16T22:43:34.903Z,99.90
2018-12-16T22:46:03.319Z,99.90
2018-12-16T22:48:32.241Z,99.90
2018-12-16T22:51:00.656Z,99.90
2018-12-16T22:53:29.053Z,99.90
2018-12-16T22:55:57.456Z,99.90
2018-12-16T22:58:25.886Z,99.90
2018-12-16T23:01:01.236Z,99.90
2018-12-16T23:03:29.648Z,99.90
2018-12-16T23:05:58.062Z,99.90
2018-12-16T23:08:26.541Z,99.90
2018-12-16T23:10:54.979Z,99.90
2018-12-16T23:13:23.368Z,99.90
2018-12-16T23:15:51.876Z,99.90
2018-12-16T23:18:20.303Z,99.90
2018-12-16T23:20:48.739Z,99.90
2018-12-16T23:23:17.137Z,99.90
2018-12-16T23:25:45.554Z,99.90
2018-12-16T23:28:14.276Z,99.90
2018-12-16T23:30:42.669Z,99.90
2018-12-16T23:33:11.078Z,99.90
2018-12-16T23:35:39.602Z,99.90
2018-12-16T23:38:07.975Z,99.90
2018-12-16T23:40:36.406Z,99.90
2018-12-16T23:43:04.810Z,99.90
2018-12-16T23:45:33.217Z,99.90
2018-12-16T23:48:01.610Z,99.90
2018-12-16T23:50:30.001Z,99.90
2018-12-16T23:52:58.389Z,99.90
2018-12-16T23:55:26.768Z,99.90
2018-12-16T23:58:00.914Z,99.90
